Time;durP1;ratioP1;P1;durP2;ratioP2;P2;SDS_P1;SDS_P2;PMS_P1;PMS_P2;Temp;Humidity;BMP_temperature;BMP_pressure;BME280_temperature;BME280_humidity;BME280_pressure;Samples;Min_cycle;Max_cycle;Signal;HPM_P1;HPM_P2
2021/11/09 00:02:10;;;;;;;9.70;6.90;;;;;;;18.97;52.75;101490.39;102613;1340;59780;-83
2021/11/09 00:04:50;;;;;;;9.70;6.40;;;;;;;18.97;52.48;101493.79;102725;1336;59620;-83
2021/11/09 00:09:56;;;;;;;8.50;6.40;;;;;;;18.97;52.66;101490.40;102674;1339;72705;-83
2021/11/09 00:12:34;;;;;;;8.90;5.90;;;;;;;18.97;52.42;101488.11;102684;1340;74165;-83
2021/11/09 00:15:00;;;;;;;8.70;6.30;;;;;;;18.96;52.41;101486.34;102698;1339;61243;-83
2021/11/09 00:17:26;;;;;;;8.60;6.20;;;;;;;18.96;52.65;101480.98;102728;1339;61355;-83
2021/11/09 00:19:52;;;;;;;9.00;6.00;;;;;;;18.97;52.35;101476.14;102694;1342;59735;-83
2021/11/09 00:22:18;;;;;;;8.40;5.90;;;;;;;18.96;52.44;101467.79;102683;1342;60308;-83
2021/11/09 00:24:44;;;;;;;8.30;5.80;;;;;;;18.96;52.43;101463.50;102670;1336;59636;-83
2021/11/09 00:27:10;;;;;;;8.50;5.90;;;;;;;18.96;52.45;101457.98;102663;1339;59698;-83
2021/11/09 00:29:36;;;;;;;8.60;6.10;;;;;;;18.95;52.32;101451.59;102610;1332;59694;-83
2021/11/09 00:32:03;;;;;;;8.30;5.80;;;;;;;18.95;52.44;101449.83;102718;1339;59781;-83
2021/11/09 00:34:28;;;;;;;8.20;5.80;;;;;;;18.95;52.26;101460.88;102664;1340;59851;-83
2021/11/09 00:36:54;;;;;;;7.50;6.10;;;;;;;18.95;52.24;101472.83;102656;1339;59680;-83
2021/11/09 00:39:20;;;;;;;8.70;5.90;;;;;;;18.95;52.19;101477.30;102665;1339;60564;-83
2021/11/09 00:41:46;;;;;;;8.40;5.90;;;;;;;18.95;52.15;101479.27;102704;1339;59681;-84
2021/11/09 00:44:12;;;;;;;7.90;5.80;;;;;;;18.94;52.17;101482.15;102703;1339;60191;-83
2021/11/09 00:46:38;;;;;;;8.30;5.70;;;;;;;18.94;52.18;101483.05;102672;1336;59694;-83
2021/11/09 00:49:04;;;;;;;7.50;5.40;;;;;;;18.94;52.26;101482.31;102657;1336;59555;-83
2021/11/09 00:51:29;;;;;;;8.20;5.60;;;;;;;18.94;52.25;101477.17;102709;1336;60511;-83
2021/11/09 00:53:55;;;;;;;7.70;5.60;;;;;;;18.94;52.22;101470.58;102678;1339;60490;-83
2021/11/09 00:56:21;;;;;;;7.00;4.90;;;;;;;18.93;52.25;101467.02;102727;1339;60554;-83
2021/11/09 00:58:46;;;;;;;8.00;5.60;;;;;;;18.94;52.20;101470.60;102683;1339;60585;-83
2021/11/09 01:01:12;;;;;;;8.10;5.20;;;;;;;18.93;52.28;101483.63;102621;1340;60981;-83
2021/11/09 01:03:38;;;;;;;7.60;5.70;;;;;;;18.93;52.29;101487.02;102637;1340;60497;-83
2021/11/09 01:06:04;;;;;;;8.80;5.50;;;;;;;18.92;52.17;101492.05;102628;1339;60514;-83
2021/11/09 01:08:30;;;;;;;7.80;5.20;;;;;;;18.92;52.34;101501.84;102630;1333;60509;-83
2021/11/09 01:10:57;;;;;;;7.50;5.00;;;;;;;18.92;52.14;101507.21;102691;1340;60543;-83
2021/11/09 01:13:24;;;;;;;6.90;5.40;;;;;;;18.92;52.15;101521.13;102621;1339;60500;-83
2021/11/09 01:15:51;;;;;;;7.50;5.10;;;;;;;18.92;52.02;101534.34;102685;1339;60467;-83
2021/11/09 01:18:24;;;;;;;7.50;5.30;;;;;;;18.92;52.02;101541.11;102657;1333;61194;-83
2021/11/09 01:20:50;;;;;;;7.10;5.00;;;;;;;18.92;52.11;101544.52;102676;1332;60355;-83
2021/11/09 01:23:16;;;;;;;6.60;4.80;;;;;;;18.92;52.16;101543.09;102572;1333;60575;-83
2021/11/09 01:25:42;;;;;;;7.10;5.10;;;;;;;18.91;52.05;101542.05;102652;1336;60455;-83
2021/11/09 01:28:08;;;;;;;7.20;4.60;;;;;;;18.92;52.10;101545.05;102626;1340;61065;-83
2021/11/09 01:30:34;;;;;;;6.80;4.50;;;;;;;18.91;52.21;101540.27;102587;1337;61540;-83
2021/11/09 01:33:01;;;;;;;7.70;4.80;;;;;;;18.90;52.02;101540.30;102647;1340;60544;-83
2021/11/09 01:35:26;;;;;;;7.40;5.30;;;;;;;18.91;52.27;101547.23;102648;1336;60561;-83
2021/11/09 01:37:52;;;;;;;7.00;4.90;;;;;;;18.91;52.12;101553.31;102645;1342;60450;-83
2021/11/09 01:40:19;;;;;;;5.70;4.30;;;;;;;18.91;52.10;101551.70;102695;1333;60364;-83
2021/11/09 01:42:45;;;;;;;6.30;4.60;;;;;;;18.90;52.19;101553.52;102674;1336;60491;-83
2021/11/09 01:45:12;;;;;;;6.70;4.60;;;;;;;18.91;52.03;101560.63;102666;1336;60474;-83
2021/11/09 01:47:38;;;;;;;6.50;4.30;;;;;;;18.90;52.03;101550.66;102715;1339;60360;-83
2021/11/09 01:50:05;;;;;;;6.60;4.30;;;;;;;18.90;52.13;101544.96;102723;1336;60504;-83
2021/11/09 01:52:31;;;;;;;8.00;4.80;;;;;;;18.90;52.01;101542.99;102649;1333;61655;-83
2021/11/09 01:54:57;;;;;;;6.60;4.30;;;;;;;18.90;51.94;101540.68;102636;1337;60437;-82
2021/11/09 01:57:22;;;;;;;6.50;4.30;;;;;;;18.89;52.05;101546.95;102636;1339;60555;-83
2021/11/09 01:59:48;;;;;;;6.80;4.50;;;;;;;18.89;52.07;101555.52;102659;1335;60523;-83
2021/11/09 02:02:15;;;;;;;8.10;4.90;;;;;;;18.89;52.05;101556.59;102684;1335;60456;-83
2021/11/09 02:04:40;;;;;;;7.30;4.40;;;;;;;18.89;52.00;101548.02;102680;1336;60657;-83
2021/11/09 02:07:06;;;;;;;6.20;4.20;;;;;;;18.89;51.90;101545.00;102669;1340;60455;-83
2021/11/09 02:09:32;;;;;;;6.00;4.20;;;;;;;18.89;52.03;101541.60;102651;1339;60503;-82
2021/11/09 02:11:58;;;;;;;6.30;4.30;;;;;;;18.89;51.84;101545.35;102726;1332;61734;-83
2021/11/09 02:14:24;;;;;;;5.90;4.30;;;;;;;18.88;51.99;101550.56;102674;1333;60496;-83
2021/11/09 02:16:50;;;;;;;6.00;4.10;;;;;;;18.88;51.91;101554.14;102653;1339;60481;-83
2021/11/09 02:19:16;;;;;;;5.90;4.20;;;;;;;18.88;51.82;101553.24;102633;1332;60429;-83
2021/11/09 02:21:42;;;;;;;5.80;4.30;;;;;;;18.88;51.95;101547.36;102680;1335;60510;-83
2021/11/09 02:24:08;;;;;;;6.70;4.50;;;;;;;18.88;51.85;101542.55;102695;1336;60474;-83
2021/11/09 02:26:35;;;;;;;5.80;4.20;;;;;;;18.88;51.90;101533.29;102679;1339;60569;-83
2021/11/09 02:29:00;;;;;;;6.00;4.30;;;;;;;18.87;51.73;101531.33;102707;1339;60421;-83
2021/11/09 02:31:27;;;;;;;6.40;4.20;;;;;;;18.87;51.82;101542.05;102739;1340;60630;-84
2021/11/09 02:33:52;;;;;;;6.10;4.20;;;;;;;18.88;51.84;101548.27;102684;1339;60377;-83
2021/11/09 02:36:18;;;;;;;6.30;3.60;;;;;;;18.87;51.85;101538.67;102668;1340;60654;-83
2021/11/09 02:38:45;;;;;;;6.40;4.10;;;;;;;18.88;51.79;101528.48;102637;1340;60474;-83
2021/11/09 02:41:11;;;;;;;6.30;4.20;;;;;;;18.87;51.62;101526.71;102663;1339;60444;-83
2021/11/09 02:43:36;;;;;;;6.30;3.90;;;;;;;18.87;51.74;101522.09;102603;1339;60577;-83
2021/11/09 02:49:10;;;;;;;5.80;4.10;;;;;;;18.86;51.69;101518.22;102447;1345;72901;-83
2021/11/09 02:54:33;;;;;;;5.10;3.40;;;;;;;18.86;51.53;101514.27;102060;1345;60467;-81
2021/11/09 03:02:47;;;;;;;5.30;3.60;;;;;;;18.86;51.43;101487.55;101705;1354;74218;-83
2021/11/09 03:05:26;;;;;;;5.60;3.50;;;;;;;18.85;51.79;101481.52;102046;1349;60358;-82
2021/11/09 03:08:16;;;;;;;6.30;4.20;;;;;;;18.86;51.52;101486.13;101902;1348;60596;-83
2021/11/09 03:10:47;;;;;;;7.50;4.20;;;;;;;18.85;51.47;101483.10;101868;1351;73536;-83
2021/11/09 03:13:13;;;;;;;5.50;3.60;;;;;;;18.86;51.49;101492.89;101845;1354;73891;-83
2021/11/09 03:15:38;;;;;;;6.80;3.90;;;;;;;18.86;51.51;101498.59;101744;1353;61261;-83
2021/11/09 03:18:08;;;;;;;5.80;4.00;;;;;;;18.86;51.66;101498.42;101869;1351;60491;-83
2021/11/09 03:20:42;;;;;;;;;;;;;;;18.86;51.38;101500.73;101824;1348;73698;-83
2021/11/09 03:45:24;;;;;;;5.30;3.30;;;;;;;18.83;51.61;101522.11;102612;1339;75010;-83
2021/11/09 03:47:44;;;;;;;5.30;3.20;;;;;;;18.83;51.39;101522.83;102599;1339;60484;-83
2021/11/09 03:50:10;;;;;;;;;;;;;;;18.83;51.61;101514.64;102574;1333;60490;-82
2021/11/09 03:52:46;;;;;;;5.40;3.30;;;;;;;18.80;51.62;101510.82;102704;1336;60629;-76
2021/11/09 03:55:22;;;;;;;7.20;3.70;;;;;;;18.81;51.49;101499.56;102530;1332;73949;-83
2021/11/09 03:58:02;;;;;;;5.80;3.70;;;;;;;18.81;51.55;101500.46;102588;1333;60472;-83
2021/11/09 04:00:44;;;;;;;;;;;;;;;;;;;;;
2021/11/09 04:03:37;;;;;;;5.40;3.60;;;;;;;18.81;51.40;101523.27;102451;1339;72779;-83
2021/11/09 04:06:32;;;;;;;4.40;3.30;;;;;;;18.81;51.64;101522.55;102366;1342;73578;-83
2021/11/09 04:09:06;;;;;;;5.80;3.70;;;;;;;18.81;51.38;101529.33;102447;1339;61279;-83
2021/11/09 04:17:53;;;;;;;5.50;3.20;;;;;;;18.82;51.50;101541.06;101853;1352;73911;-83
2021/11/09 04:19:58;;;;;;;5.10;3.50;;;;;;;18.81;51.33;101542.35;101890;1345;60397;-83
2021/11/09 04:37:26;;;;;;;;;;;;;;;;;;;;;
2021/11/09 05:01:12;;;;;;;5.60;3.60;;;;;;;18.80;51.23;101608.36;101138;1355;73097;-82
2021/11/09 05:09:09;;;;;;;5.50;3.60;;;;;;;18.79;51.19;101597.22;101370;1362;73732;-82
2021/11/09 05:11:47;;;;;;;5.30;3.80;;;;;;;18.77;51.17;101604.05;101667;1356;73367;-82
2021/11/09 05:14:13;;;;;;;7.90;3.70;;;;;;;18.77;50.98;101599.46;101800;1351;60729;-82
2021/11/09 05:16:42;;;;;;;6.00;3.60;;;;;;;18.75;50.79;101594.73;101917;1351;60797;-82
2021/11/09 05:19:21;;;;;;;6.10;3.60;;;;;;;18.73;50.71;101605.70;101901;1344;72807;-82
2021/11/09 05:21:47;;;;;;;6.20;3.80;;;;;;;18.72;50.81;101618.75;101869;1345;60493;-82
2021/11/09 05:24:12;;;;;;;10.20;3.80;;;;;;;18.72;50.69;101630.67;101963;1345;60491;-82
2021/11/09 05:26:41;;;;;;;9.70;4.50;;;;;;;18.73;50.56;101640.09;102346;1340;60606;-83
2021/11/09 05:29:07;;;;;;;9.90;4.30;;;;;;;18.74;50.39;101638.79;102341;1338;60492;-82
2021/11/09 05:31:33;;;;;;;7.00;3.70;;;;;;;18.76;50.42;101640.85;102409;1343;60832;-83
2021/11/09 05:33:59;;;;;;;11.00;3.70;;;;;;;18.77;50.13;101646.52;102605;1336;60449;-83
2021/11/09 05:36:32;;;;;;;9.50;4.10;;;;;;;18.78;49.84;101651.30;102547;1336;60657;-82
2021/11/09 05:39:19;;;;;;;9.10;4.10;;;;;;;18.80;49.79;101653.70;102570;1335;73347;-81
2021/11/09 05:41:46;;;;;;;7.20;4.00;;;;;;;18.82;49.62;101658.05;102529;1335;74955;-81
2021/11/09 05:44:11;;;;;;;8.00;3.90;;;;;;;18.84;49.35;101661.52;102532;1335;60445;-83
2021/11/09 05:46:38;;;;;;;6.10;3.40;;;;;;;18.86;49.26;101654.63;102440;1335;60526;-82
2021/11/09 05:49:05;;;;;;;9.20;3.60;;;;;;;18.90;49.19;101655.36;102543;1335;59279;-83
2021/11/09 05:51:31;;;;;;;8.90;3.80;;;;;;;18.93;49.00;101651.82;102473;1331;59240;-82
2021/11/09 05:53:57;;;;;;;8.30;4.00;;;;;;;18.93;48.71;101656.45;102491;1336;60662;-82
2021/11/09 05:56:23;;;;;;;8.60;3.80;;;;;;;18.94;48.67;101662.88;102462;1335;59169;-81
2021/11/09 05:58:52;;;;;;;8.90;4.20;;;;;;;18.94;48.60;101667.30;102484;1335;60485;-85
2021/11/09 06:01:19;;;;;;;7.80;3.90;;;;;;;18.91;48.42;101670.64;102537;1337;75291;-82
2021/11/09 06:03:45;;;;;;;7.50;4.30;;;;;;;18.92;48.37;101677.05;102511;1335;60459;-82
2021/11/09 06:06:15;;;;;;;11.60;3.90;;;;;;;18.93;48.08;101682.17;102477;1335;59980;-84
2021/11/09 06:08:42;;;;;;;9.00;4.20;;;;;;;18.95;48.27;101685.14;102415;1330;73591;-84
2021/11/09 06:11:08;;;;;;;10.00;3.90;;;;;;;18.97;48.00;101682.35;102363;1335;74240;-83
2021/11/09 06:13:34;;;;;;;8.10;3.90;;;;;;;19.00;47.86;101687.38;102554;1338;60192;-83
2021/11/09 06:16:00;;;;;;;7.00;3.30;;;;;;;19.03;47.89;101695.25;102488;1335;60359;-84
2021/11/09 06:18:25;;;;;;;9.00;4.10;;;;;;;19.08;47.84;101697.52;102459;1340;59275;-84
2021/11/09 06:20:51;;;;;;;8.10;3.50;;;;;;;19.13;47.75;101703.87;102533;1335;60383;-83
2021/11/09 06:23:18;;;;;;;10.90;3.80;;;;;;;19.18;47.60;101708.95;102498;1341;59292;-86
2021/11/09 06:25:58;;;;;;;9.10;3.60;;;;;;;19.24;47.57;101723.30;102766;1335;61589;-86
2021/11/09 06:28:24;;;;;;;8.00;4.10;;;;;;;19.30;47.39;101720.54;102386;1338;74704;-85
2021/11/09 06:32:36;;;;;;;7.30;3.60;;;;;;;19.36;47.51;101714.72;102359;1326;92466;-80
2021/11/09 06:35:42;;;;;;;;;;;;;;;;;;;;;
2021/11/09 06:39:39;;;;;;;5.80;3.20;;;;;;;19.48;47.42;101717.16;102265;1336;60746;-80
2021/11/09 06:42:36;;;;;;;6.20;3.10;;;;;;;19.54;47.51;101721.66;101612;1346;73142;-80
2021/11/09 06:45:45;;;;;;;6.50;3.30;;;;;;;19.60;47.51;101719.22;101409;1356;74533;-80
2021/11/09 06:49:36;;;;;;;;;;;;;;;;;;;;;
2021/11/09 06:52:53;;;;;;;9.50;3.70;;;;;;;19.68;47.50;101712.59;100268;1359;61951;-82
2021/11/09 06:55:44;;;;;;;8.80;3.80;;;;;;;19.67;47.33;101707.65;99590;1367;73918;-82
2021/11/09 06:58:56;;;;;;;9.40;3.80;;;;;;;19.59;47.19;101706.38;99668;1370;75414;-83
2021/11/09 07:02:30;;;;;;;10.10;3.80;;;;;;;19.54;47.28;101706.48;99192;1378;60733;-83
2021/11/09 07:06:22;;;;;;;8.20;3.50;;;;;;;19.54;47.26;101712.73;99035;1377;60677;-83
2021/11/09 07:09:25;;;;;;;;;;;;;;;;;;;;;
2021/11/09 07:13:00;;;;;;;10.50;3.40;;;;;;;19.63;47.31;101742.83;98508;1384;75673;-80
2021/11/09 07:16:46;;;;;;;;;;;;;;;;;;;;;
2021/11/09 07:20:22;;;;;;;;;;;;;;;;;;;;;
2021/11/09 07:34:13;;;;;;;28.60;5.10;;;;;;;20.41;46.61;101745.20;100860;1353;612912;-85
2021/11/09 07:37:22;;;;;;;28.60;5.00;;;;;;;20.41;46.97;101751.17;100591;1359;468576;-82
2021/11/09 07:40:19;;;;;;;;;;;;;;;;;;;;;
2021/11/09 07:43:14;;;;;;;15.40;3.50;;;;;;;20.35;47.03;101751.45;100297;1367;60464;-82
2021/11/09 07:46:07;;;;;;;;;;;;;;;;;;;;;
2021/11/09 07:49:31;;;;;;;18.90;4.20;;;;;;;20.30;47.35;101753.52;100087;1367;71484;-82
2021/11/09 07:52:22;;;;;;;18.30;4.10;;;;;;;20.28;47.39;101762.93;99487;1372;61141;-82
2021/11/09 07:55:04;;;;;;;20.90;3.70;;;;;;;20.27;47.70;101760.86;98880;1374;59783;-82
2021/11/09 07:59:11;;;;;;;17.30;4.20;;;;;;;20.24;47.77;101755.08;99354;1374;73280;-83
2021/11/09 08:01:37;;;;;;;14.50;3.90;;;;;;;20.22;47.93;101749.31;99111;1374;72423;-82
2021/11/09 08:07:59;;;;;;;18.20;3.80;;;;;;;20.18;48.05;101760.75;99179;1375;60712;-82
2021/11/09 08:11:11;;;;;;;16.40;4.00;;;;;;;20.18;48.14;101771.48;99287;1375;72150;-84
2021/11/09 08:14:11;;;;;;;17.40;3.90;;;;;;;20.19;48.15;101774.30;99408;1374;74515;-82
2021/11/09 08:17:13;;;;;;;13.90;3.80;;;;;;;20.20;48.28;101784.60;99424;1375;60213;-82
2021/11/09 08:20:31;;;;;;;;;;;;;;;;;;;;;
2021/11/09 08:23:37;;;;;;;18.80;3.90;;;;;;;20.23;48.36;101811.10;99575;1376;72087;-83
2021/11/09 08:26:25;;;;;;;14.40;3.90;;;;;;;20.24;48.47;101829.64;99492;1369;72837;-83
2021/11/09 08:29:25;;;;;;;;;;;;;;;;;;;;;
2021/11/09 08:32:08;;;;;;;20.10;3.90;;;;;;;20.25;48.70;101820.80;100267;1363;63037;-83
2021/11/09 08:34:43;;;;;;;9.10;3.70;;;;;;;20.26;48.70;101809.14;99999;1366;72606;-83
2021/11/09 08:38:06;;;;;;;16.30;3.70;;;;;;;20.27;48.69;101801.77;100312;1366;71406;-84
2021/11/09 08:41:28;;;;;;;13.30;3.50;;;;;;;20.27;48.80;101798.91;100181;1363;60974;-84
2021/11/09 08:44:05;;;;;;;10.70;3.70;;;;;;;20.28;48.83;101807.27;100157;1366;60497;-84
2021/11/09 08:46:57;;;;;;;8.60;3.30;;;;;;;20.28;48.96;101814.93;100020;1366;72854;-83
2021/11/09 08:50:20;;;;;;;9.90;3.60;;;;;;;20.29;48.70;101815.08;100246;1367;72496;-82
2021/11/09 08:53:42;;;;;;;;;;;;;;;20.29;48.99;101837.79;99163;1375;59759;-82
2021/11/09 09:01:01;;;;;;;29.50;4.10;;;;;;;20.28;49.04;101857.16;100220;1377;73831;-83
2021/11/09 09:04:16;;;;;;;19.90;3.70;;;;;;;20.27;49.08;101902.42;99048;1374;60512;-83
2021/11/09 09:07:10;;;;;;;;;;;;;;;;;;;;;
2021/11/09 09:10:01;;;;;;;12.60;4.00;;;;;;;20.29;49.28;101898.39;99377;1374;73434;-84
2021/11/09 09:12:43;;;;;;;;;;;;;;;;;;;;;
2021/11/09 09:16:07;;;;;;;;;;;;;;;;;;;;;
2021/11/09 09:18:42;;;;;;;10.70;3.30;;;;;;;20.32;49.29;101939.52;98744;1380;60524;-83
2021/11/09 09:24:04;;;;;;;13.50;3.60;;;;;;;20.34;49.46;101941.95;98331;1387;73138;-82
2021/11/09 09:26:46;;;;;;;17.50;4.00;;;;;;;20.35;49.42;101927.25;98599;1381;60487;-83
2021/11/09 09:54:45;;;;;;;11.10;2.90;;;;;;;20.31;49.22;101868.07;99410;1368;60902;-83
2021/11/09 09:57:28;;;;;;;7.10;3.00;;;;;;;19.93;48.52;101864.06;101580;1363;73001;-84
2021/11/09 09:59:59;;;;;;;9.40;3.00;;;;;;;19.61;48.20;101864.69;100465;1363;74212;-82
2021/11/09 10:02:51;;;;;;;7.20;3.00;;;;;;;19.35;48.00;101872.54;99891;1362;60683;-81
2021/11/09 10:05:38;;;;;;;;;;;;;;;;;;;;;
2021/11/09 10:08:52;;;;;;;7.80;3.10;;;;;;;19.34;48.14;101898.31;100431;1368;72358;-81
2021/11/09 10:16:13;;;;;;;13.10;2.90;;;;;;;19.58;48.20;101891.65;99166;1375;59773;-81
2021/11/09 10:19:19;;;;;;;7.70;2.40;;;;;;;19.68;48.16;101900.23;99335;1374;60677;-82
2021/11/09 10:22:53;;;;;;;10.80;2.50;;;;;;;19.78;48.13;101909.62;99547;1375;73828;-82
2021/11/09 10:26:15;;;;;;;11.50;3.00;;;;;;;19.87;48.08;101938.33;99131;1375;74176;-81
2021/11/09 10:29:19;;;;;;;11.40;3.10;;;;;;;19.93;48.28;101963.58;99085;1375;60606;-81
2021/11/09 10:31:48;;;;;;;7.80;2.50;;;;;;;19.99;48.38;101975.46;99100;1375;60521;-81
2021/11/09 10:34:47;;;;;;;10.10;2.80;;;;;;;20.03;48.44;101989.39;99033;1376;73523;-81
2021/11/09 10:37:51;;;;;;;;;;;;;;;;;;;;;
2021/11/09 10:41:18;;;;;;;;;;;;;;;;;;;;;
2021/11/09 10:44:51;;;;;;;;;;;;;;;;;;;;;
2021/11/09 10:48:24;;;;;;;11.80;2.80;;;;;;;20.20;48.78;102024.86;99102;1381;71769;-83
2021/11/09 10:51:32;;;;;;;12.20;3.10;;;;;;;20.16;48.57;102019.48;99094;1378;74454;-82
2021/11/09 10:54:06;;;;;;;8.60;2.70;;;;;;;19.85;48.18;101992.36;99126;1374;60703;-82
2021/11/09 11:04:57;;;;;;;12.70;3.00;;;;;;;19.25;48.21;102029.86;97732;1396;71976;-81
2021/11/09 11:07:32;;;;;;;8.30;2.60;;;;;;;19.35;48.14;102011.59;97790;1392;61583;-80
2021/11/09 11:10:03;;;;;;;11.20;2.80;;;;;;;19.44;48.12;102019.58;98009;1389;61762;-80
2021/11/09 11:13:13;;;;;;;10.70;2.90;;;;;;;19.55;48.13;102028.73;98027;1389;72900;-81
2021/11/09 11:16:26;;;;;;;13.80;2.90;;;;;;;19.66;48.16;102023.77;98025;1390;74413;-81
2021/11/09 11:18:57;;;;;;;10.60;3.00;;;;;;;19.76;48.29;102036.73;98416;1380;61633;-80
2021/11/09 11:21:41;;;;;;;18.10;3.40;;;;;;;19.82;48.30;102030.95;98697;1380;60691;-81
2021/11/09 11:24:25;;;;;;;8.80;2.70;;;;;;;19.86;48.42;102007.17;98659;1380;73764;-81
2021/11/09 11:26:57;;;;;;;10.30;2.90;;;;;;;19.91;48.44;101998.70;98759;1381;73628;-82
2021/11/09 11:29:36;;;;;;;10.00;2.80;;;;;;;19.96;48.50;102003.85;98553;1380;60955;-81
2021/11/09 11:32:03;;;;;;;10.80;2.90;;;;;;;20.01;48.56;102009.52;98945;1381;60657;-80
2021/11/09 11:34:41;;;;;;;13.60;2.80;;;;;;;20.04;48.56;102003.63;98842;1378;72761;-80
2021/11/09 11:37:11;;;;;;;10.30;2.50;;;;;;;20.08;48.59;102000.39;99210;1377;74294;-80
2021/11/09 11:39:58;;;;;;;7.20;2.70;;;;;;;20.13;48.62;102024.13;99582;1374;61438;-80
2021/11/09 11:42:37;;;;;;;8.00;2.80;;;;;;;20.18;48.67;102051.60;100561;1356;60434;-80
2021/11/09 11:45:11;;;;;;;6.20;2.60;;;;;;;20.21;48.69;102072.16;100584;1358;72601;-81
2021/11/09 11:48:38;;;;;;;6.20;2.50;;;;;;;20.21;48.52;102058.20;101076;1358;71884;-81
2021/11/09 11:51:12;;;;;;;11.80;2.50;;;;;;;20.18;48.43;102058.00;100511;1356;60649;-81
2021/11/09 11:54:29;;;;;;;9.20;2.50;;;;;;;20.01;47.95;102071.70;101954;1354;59277;-82
2021/11/09 11:56:54;;;;;;;6.00;2.00;;;;;;;19.83;47.84;102079.65;101832;1359;71933;-83
2021/11/09 11:59:43;;;;;;;7.20;2.90;;;;;;;19.77;47.71;102090.45;101902;1359;57579;-82
2021/11/09 12:02:10;;;;;;;8.40;2.80;;;;;;;19.65;47.39;102086.54;101469;1362;62458;-83
2021/11/09 12:04:36;;;;;;;9.20;3.00;;;;;;;19.55;47.30;102092.64;101406;1363;57895;-83
2021/11/09 12:07:14;;;;;;;7.90;2.40;;;;;;;19.48;47.18;102077.42;101527;1367;72766;-83
2021/11/09 12:09:44;;;;;;;6.10;2.30;;;;;;;19.48;47.10;102071.02;101595;1363;74588;-82
2021/11/09 12:12:19;;;;;;;8.40;2.60;;;;;;;19.54;47.09;102073.97;101552;1359;60447;-83
2021/11/09 12:14:56;;;;;;;6.20;2.70;;;;;;;19.61;47.04;102075.98;101186;1360;60429;-82
2021/11/09 12:17:58;;;;;;;7.40;2.60;;;;;;;19.66;47.10;102082.36;101409;1360;72833;-82
2021/11/09 12:20:40;;;;;;;6.60;2.60;;;;;;;19.72;46.96;102097.77;99919;1364;74325;-82
2021/11/09 12:23:51;;;;;;;;;;;;;;;;;;;;;
2021/11/09 12:27:20;;;;;;;;;;;;;;;;;;;;;
2021/11/09 12:30:09;;;;;;;7.80;2.80;;;;;;;19.83;46.77;102106.64;100892;1355;72716;-82
2021/11/09 12:33:14;;;;;;;8.00;2.70;;;;;;;19.80;46.74;102104.42;100670;1357;74083;-80
2021/11/09 12:36:39;;;;;;;5.60;2.60;;;;;;;19.80;46.67;102111.55;100698;1356;60560;-80
2021/11/09 12:40:22;;;;;;;5.90;2.40;;;;;;;19.84;46.65;102120.86;100644;1359;60410;-81
2021/11/09 12:43:08;;;;;;;10.50;2.40;;;;;;;19.90;46.79;102143.09;101968;1356;72645;-82
2021/11/09 12:46:13;;;;;;;6.30;2.40;;;;;;;19.96;46.83;102155.35;100818;1356;74531;-82
2021/11/09 12:49:25;;;;;;;9.80;2.90;;;;;;;19.99;46.93;102155.97;100779;1356;60494;-82
2021/11/09 12:52:35;;;;;;;6.70;3.10;;;;;;;19.99;46.77;102170.58;100669;1354;60741;-83
2021/11/09 12:55:10;;;;;;;9.00;2.90;;;;;;;19.94;46.66;102189.05;102223;1356;72881;-82
2021/11/09 12:57:37;;;;;;;7.40;2.80;;;;;;;19.86;46.51;102195.66;101972;1359;74081;-81
2021/11/09 13:00:08;;;;;;;7.00;3.20;;;;;;;19.75;46.37;102206.46;102004;1357;58714;-82
2021/11/09 13:02:43;;;;;;;11.30;2.90;;;;;;;19.69;46.30;102216.69;101881;1355;59865;-82
2021/11/09 13:05:23;;;;;;;7.60;3.40;;;;;;;19.68;46.26;102232.28;101915;1356;73825;-83
2021/11/09 13:08:25;;;;;;;;;;;;;;;;;;;;;
2021/11/09 13:10:51;;;;;;;7.00;3.00;;;;;;;19.57;46.37;102264.55;101936;1361;61387;-83
2021/11/09 13:14:06;;;;;;;13.80;3.20;;;;;;;19.57;46.29;102270.42;101967;1356;59522;-83
2021/11/09 13:17:18;;;;;;;10.50;3.20;;;;;;;19.57;46.77;102282.20;101417;1354;73598;-82
2021/11/09 13:20:50;;;;;;;9.80;2.90;;;;;;;19.50;46.62;102293.42;100716;1360;73998;-80
2021/11/09 13:23:43;;;;;;;12.20;3.40;;;;;;;19.46;46.90;102297.67;100798;1364;60512;-81
2021/11/09 13:27:34;;;;;;;8.20;3.00;;;;;;;19.52;46.89;102304.55;100727;1358;60575;-81
2021/11/09 13:30:35;;;;;;;10.20;3.00;;;;;;;19.57;46.87;102314.00;100444;1368;70569;-81
2021/11/09 13:33:52;;;;;;;9.60;2.90;;;;;;;19.62;46.83;102327.20;99966;1368;73324;-81
2021/11/09 13:37:05;;;;;;;;;;;;;;;;;;;;;
2021/11/09 13:48:57;;;;;;;8.60;2.80;;;;;;;19.50;46.56;102311.08;98788;1389;72804;-82
2021/11/09 13:51:57;;;;;;;;;;;;;;;;;;;;;
2021/11/09 13:55:50;;;;;;;7.70;2.60;;;;;;;19.44;46.24;102314.38;98125;1393;61508;-82
2021/11/09 13:59:06;;;;;;;;;;;;;;;;;;;;;
2021/11/09 14:09:28;;;;;;;;;;;;;;;;;;;;;
2021/11/09 14:24:35;;;;;;;11.70;2.80;;;;;;;19.04;45.67;102365.70;99235;1377;60628;-83
2021/11/09 14:27:49;;;;;;;;;;;;;;;;;;;;;
2021/11/09 14:31:25;;;;;;;;;;;;;;;;;;;;;
2021/11/09 14:35:36;;;;;;;15.20;3.40;;;;;;;18.97;45.63;102375.98;99819;1374;60893;-82
2021/11/09 14:38:50;;;;;;;10.40;2.80;;;;;;;18.92;45.53;102384.16;98821;1386;60641;-82
2021/11/09 14:42:38;;;;;;;;;;;;;;;;;;;;;
2021/11/09 14:46:45;;;;;;;;;;;;;;;;;;;;;
2021/11/09 14:50:00;;;;;;;8.70;3.50;;;;;;;18.82;45.46;102415.39;98210;1394;61684;-81
2021/11/09 14:54:06;;;;;;;;;;;;;;;;;;;;;
2021/11/09 14:57:13;;;;;;;;;;;;;;;;;;;;;
2021/11/09 15:01:19;;;;;;;9.40;3.30;;;;;;;18.87;45.44;102448.02;97855;1398;74562;-83
2021/11/09 15:08:19;;;;;;;;;;;;;;;;;;;;;
2021/11/09 15:37:30;;;;;;;;;;;;;;;;;;;;;
2021/11/09 15:44:31;;;;;;;;;;;;;;;;;;;;;
2021/11/09 15:52:29;;;;;;;10.70;4.10;;;;;;;18.99;45.12;102512.75;100499;1373;62358;-82
2021/11/09 15:55:32;;;;;;;;;;;;;;;;;;;;;
2021/11/09 16:06:31;;;;;;;10.50;3.40;;;;;;;19.00;45.14;102526.46;97493;1404;75756;-82
2021/11/09 16:10:31;;;;;;;31.20;5.30;;;;;;;19.01;45.20;102524.98;97243;1405;60738;-83
2021/11/09 16:13:40;;;;;;;;;;;;;;;;;;;;;
2021/11/09 16:17:11;;;;;;;;;;;;;;;;;;;;;
2021/11/09 16:20:33;;;;;;;;;;;;;;;;;;;;;
2021/11/09 16:24:22;;;;;;;;;;;;;;;;;;;;;
2021/11/09 16:27:50;;;;;;;;;;;;;;;;;;;;;
2021/11/09 16:39:51;;;;;;;22.00;10.60;;;;;;;19.01;45.18;102551.77;95745;1430;61869;-83
2021/11/09 16:42:31;;;;;;;;;;;;;;;;;;;;;
2021/11/09 16:46:44;;;;;;;28.50;13.00;;;;;;;18.98;45.13;102568.64;96766;1413;74467;-82
2021/11/09 16:53:22;;;;;;;;;;;;;;;;;;;;;
2021/11/09 18:23:08;;;;;;;;;;;;;;;;;;;;;
2021/11/09 18:27:02;;;;;;;15.80;7.10;;;;;;;18.93;45.14;102687.98;98648;1389;59696;-80
2021/11/09 18:30:39;;;;;;;;;;;;;;;;;;;;;
2021/11/09 18:34:19;;;;;;;;;;;;;;;;;;;;;
2021/11/09 18:38:39;;;;;;;14.10;6.60;;;;;;;18.91;45.23;102725.84;97771;1404;59785;-83
2021/11/09 18:42:01;;;;;;;14.20;6.30;;;;;;;18.91;45.42;102732.98;97863;1403;59701;-83
2021/11/09 18:45:57;;;;;;;;;;;;;;;;;;;;;
2021/11/09 18:49:05;;;;;;;12.70;6.70;;;;;;;18.91;45.47;102734.62;97814;1400;73287;-82
2021/11/09 18:52:44;;;;;;;;;;;;;;;;;;;;;
2021/11/09 18:56:36;;;;;;;;;;;;;;;;;;;;;
2021/11/09 19:00:14;;;;;;;15.30;6.40;;;;;;;18.87;45.44;102746.67;96585;1421;71637;-84
2021/11/09 19:04:01;;;;;;;15.30;6.30;;;;;;;18.86;45.34;102749.36;96592;1419;72032;-83
2021/11/09 19:07:28;;;;;;;;;;;;;;;;;;;;;
2021/11/09 19:14:50;;;;;;;;;;;;;;;;;;;;;
2021/11/09 19:19:06;;;;;;;18.00;6.70;;;;;;;18.84;45.45;102782.27;96311;1426;73523;-84
2021/11/09 19:22:55;;;;;;;14.60;6.60;;;;;;;18.83;45.48;102784.80;96204;1429;60898;-83
2021/11/09 19:26:21;;;;;;;;;;;;;;;;;;;;;
2021/11/09 19:29:59;;;;;;;;;;;;;;;;;;;;;
2021/11/09 19:33:36;;;;;;;16.20;6.80;;;;;;;18.82;45.36;102791.77;96023;1431;74636;-83
2021/11/09 19:37:27;;;;;;;;;;;;;;;;;;;;;
2021/11/09 19:41:15;;;;;;;54.90;10.00;;;;;;;18.81;45.70;102806.42;96106;1426;61784;-83
2021/11/09 19:44:34;;;;;;;;;;;;;;;;;;;;;
2021/11/09 19:48:30;;;;;;;16.40;6.30;;;;;;;18.80;45.86;102819.33;96052;1431;72203;-83
2021/11/09 20:06:05;;;;;;;;;;;;;;;;;;;;;
2021/11/09 20:09:23;;;;;;;;;;;;;;;;;;;;;
2021/11/09 20:12:42;;;;;;;;;;;;;;;;;;;;;
2021/11/09 20:16:54;;;;;;;41.50;10.60;;;;;;;19.17;44.76;102831.63;100516;1372;59348;-83
2021/11/09 20:19:56;;;;;;;39.60;10.60;;;;;;;19.08;44.76;102835.25;100564;1366;59396;-83
2021/11/09 20:27:21;;;;;;;;;;;;;;;;;;;;;